Time;durP1;ratioP1;P1;durP2;ratioP2;P2;SDS_P1;SDS_P2;PMS_P1;PMS_P2;Temp;Humidity;BMP_temperature;BMP_pressure;BME280_temperature;BME280_humidity;BME280_pressure;Samples;Min_cycle;Max_cycle;Signal;HPM_P1;HPM_P2
2023/07/04 00:01:06;;;;;;;3.57;1.20;;;;;;;;;;5014314;28;20570;-84
2023/07/04 00:03:33;;;;;;;2.87;1.13;;;;;;;;;;5014257;28;20515;-84
2023/07/04 00:05:59;;;;;;;3.83;1.33;;;;;;;;;;5012889;28;20419;-84
2023/07/04 00:08:26;;;;;;;4.07;0.83;;;;;;;;;;5013871;28;20418;-82
2023/07/04 00:10:52;;;;;;;5.17;1.17;;;;;;;;;;5013378;28;20507;-86
2023/07/04 00:13:19;;;;;;;5.70;1.57;;;;;;;;;;5013128;28;20431;-82
2023/07/04 00:15:45;;;;;;;7.03;1.53;;;;;;;;;;5012846;28;20431;-86
2023/07/04 00:18:11;;;;;;;1.93;1.03;;;;;;;;;;5013749;28;20421;-84
2023/07/04 00:20:37;;;;;;;5.33;1.00;;;;;;;;;;5013955;28;20410;-86
2023/07/04 00:23:04;;;;;;;7.77;2.30;;;;;;;;;;5013680;28;20988;-86
2023/07/04 00:25:30;;;;;;;3.07;1.40;;;;;;;;;;5013931;28;20414;-88
2023/07/04 00:27:56;;;;;;;3.53;1.00;;;;;;;;;;4995269;28;20419;-83
2023/07/04 00:30:22;;;;;;;4.83;1.73;;;;;;;;;;4993819;28;20495;-84
2023/07/04 00:32:48;;;;;;;3.20;1.67;;;;;;;;;;4993611;28;20189;-87
2023/07/04 00:35:14;;;;;;;2.33;0.63;;;;;;;;;;4999909;28;20548;-83
2023/07/04 00:37:43;;;;;;;2.60;1.23;;;;;;;;;;5011980;28;20199;-88
2023/07/04 00:40:12;;;;;;;3.20;0.90;;;;;;;;;;5013707;28;20428;-86
2023/07/04 00:42:38;;;;;;;4.73;1.33;;;;;;;;;;5013137;28;20505;-86
2023/07/04 00:45:20;;;;;;;3.70;1.03;;;;;;;;;;5013517;28;20419;-85
2023/07/04 00:47:53;;;;;;;5.10;0.97;;;;;;;;;;5013469;28;20422;-82
2023/07/04 00:50:23;;;;;;;6.60;1.90;;;;;;;;;;5013475;28;20417;-82
2023/07/04 00:52:49;;;;;;;7.23;0.93;;;;;;;;;;5013213;28;20814;-82
2023/07/04 00:55:15;;;;;;;2.20;0.53;;;;;;;;;;5013377;28;20448;-81
2023/07/04 00:57:40;;;;;;;3.87;1.00;;;;;;;;;;5012954;28;20411;-83
2023/07/04 01:00:16;;;;;;;3.53;0.77;;;;;;;;;;5012014;28;20424;-86
2023/07/04 01:02:46;;;;;;;2.10;0.47;;;;;;;;;;5013037;28;20560;-80
2023/07/04 01:05:13;;;;;;;2.87;0.90;;;;;;;;;;5013062;28;20407;-81
2023/07/04 01:07:46;;;;;;;3.43;0.83;;;;;;;;;;5013104;28;20935;-84
2023/07/04 01:10:17;;;;;;;2.90;0.60;;;;;;;;;;5011456;28;20472;-86
2023/07/04 01:12:44;;;;;;;1.40;0.30;;;;;;;;;;5012587;28;20412;-84
2023/07/04 01:15:10;;;;;;;3.60;0.60;;;;;;;;;;5013036;28;20450;-82
2023/07/04 01:17:36;;;;;;;2.80;0.63;;;;;;;;;;5012953;28;20824;-81
2023/07/04 01:20:06;;;;;;;3.77;0.47;;;;;;;;;;5012943;28;20423;-82
2023/07/04 01:22:45;;;;;;;1.77;0.50;;;;;;;;;;5012958;28;20521;-81
2023/07/04 01:25:20;;;;;;;1.03;0.30;;;;;;;;;;5012897;28;20816;-81
2023/07/04 01:27:46;;;;;;;1.67;0.20;;;;;;;;;;5012466;28;20410;-81
2023/07/04 01:30:12;;;;;;;4.27;0.27;;;;;;;;;;5012642;28;20897;-83
2023/07/04 01:32:38;;;;;;;2.93;0.53;;;;;;;;;;5012704;28;20459;-81
2023/07/04 01:35:07;;;;;;;3.70;0.30;;;;;;;;;;5012761;28;20446;-84
2023/07/04 01:37:33;;;;;;;2.47;0.40;;;;;;;;;;5012873;28;20424;-82
2023/07/04 01:40:00;;;;;;;1.90;0.40;;;;;;;;;;5012800;28;20470;-83
2023/07/04 01:42:33;;;;;;;1.03;0.30;;;;;;;;;;5012336;28;20306;-82
2023/07/04 01:45:01;;;;;;;2.30;0.30;;;;;;;;;;5014343;28;20505;-83
2023/07/04 01:47:27;;;;;;;3.00;0.40;;;;;;;;;;5016913;28;20849;-86
2023/07/04 01:49:53;;;;;;;2.30;0.30;;;;;;;;;;5016786;28;20922;-83
2023/07/04 01:52:19;;;;;;;0.97;0.20;;;;;;;;;;5016403;28;20423;-83
2023/07/04 01:54:45;;;;;;;1.90;0.30;;;;;;;;;;5016547;28;20276;-87
2023/07/04 01:57:11;;;;;;;1.03;0.30;;;;;;;;;;5016316;28;20205;-83
2023/07/04 01:59:37;;;;;;;4.57;0.80;;;;;;;;;;5015366;28;20469;-84
2023/07/04 02:02:03;;;;;;;1.13;0.20;;;;;;;;;;5016508;28;20474;-85
2023/07/04 02:04:29;;;;;;;2.87;0.47;;;;;;;;;;5015533;28;20464;-87
2023/07/04 02:06:55;;;;;;;1.40;0.40;;;;;;;;;;4995098;28;20840;-82
2023/07/04 02:09:23;;;;;;;0.60;0.20;;;;;;;;;;4995472;28;20453;-84
2023/07/04 02:11:49;;;;;;;3.70;0.57;;;;;;;;;;4996100;28;20591;-84
2023/07/04 02:14:16;;;;;;;2.27;0.63;;;;;;;;;;4996635;28;20495;-81
2023/07/04 02:16:42;;;;;;;0.90;0.30;;;;;;;;;;4996944;28;20414;-84
2023/07/04 02:19:08;;;;;;;2.23;0.50;;;;;;;;;;4996920;28;21041;-85
2023/07/04 02:21:34;;;;;;;1.63;0.30;;;;;;;;;;4996770;28;20505;-82
2023/07/04 02:24:00;;;;;;;2.00;0.20;;;;;;;;;;4996982;28;20664;-84
2023/07/04 02:26:26;;;;;;;3.10;0.57;;;;;;;;;;4996512;28;20411;-88
2023/07/04 02:28:52;;;;;;;2.80;0.50;;;;;;;;;;4996894;28;20506;-89
2023/07/04 02:31:18;;;;;;;3.43;0.30;;;;;;;;;;4996919;28;20176;-82
2023/07/04 02:33:47;;;;;;;1.47;0.47;;;;;;;;;;4996838;28;20419;-90
2023/07/04 02:36:13;;;;;;;3.23;0.47;;;;;;;;;;4996549;28;20411;-83
2023/07/04 02:38:39;;;;;;;2.17;0.73;;;;;;;;;;5011681;28;20824;-85
2023/07/04 02:41:06;;;;;;;2.90;0.30;;;;;;;;;;4996362;28;20423;-88
2023/07/04 02:43:33;;;;;;;2.30;0.60;;;;;;;;;;5011915;28;20910;-87
2023/07/04 02:45:59;;;;;;;3.17;0.67;;;;;;;;;;4996503;28;20829;-87
2023/07/04 02:48:26;;;;;;;1.90;0.43;;;;;;;;;;4996552;28;20446;-88
2023/07/04 02:50:52;;;;;;;1.40;0.50;;;;;;;;;;5011490;28;20411;-86
2023/07/04 02:53:21;;;;;;;12.70;0.83;;;;;;;;;;5011413;28;20437;-88
2023/07/04 02:55:47;;;;;;;5.80;0.40;;;;;;;;;;5010635;28;20801;-89
2023/07/04 02:58:14;;;;;;;1.60;1.03;;;;;;;;;;5011398;28;20423;-85
2023/07/04 03:00:40;;;;;;;2.37;0.73;;;;;;;;;;4996444;28;20427;-88
2023/07/04 03:03:06;;;;;;;4.27;0.73;;;;;;;;;;5011222;28;20481;-88
2023/07/04 03:05:32;;;;;;;6.30;0.57;;;;;;;;;;5011627;28;20771;-88
2023/07/04 03:07:58;;;;;;;1.37;0.47;;;;;;;;;;4996118;28;20184;-88
2023/07/04 03:10:24;;;;;;;6.37;0.70;;;;;;;;;;4995578;28;20545;-89
2023/07/04 03:12:50;;;;;;;4.13;0.50;;;;;;;;;;5011341;28;20542;-88
2023/07/04 03:15:15;;;;;;;3.13;0.73;;;;;;;;;;5011275;28;20784;-89
2023/07/04 03:17:42;;;;;;;6.87;0.73;;;;;;;;;;5011233;28;20430;-88
2023/07/04 03:20:09;;;;;;;5.90;1.07;;;;;;;;;;5011287;28;20419;-90
2023/07/04 03:22:38;;;;;;;3.37;0.53;;;;;;;;;;4995887;28;20470;-88
2023/07/04 03:25:04;;;;;;;12.63;1.40;;;;;;;;;;4995979;28;20415;-89
2023/07/04 03:27:30;;;;;;;6.27;1.13;;;;;;;;;;4994821;28;20484;-89
2023/07/04 03:29:56;;;;;;;2.40;0.67;;;;;;;;;;4994892;28;20427;-89
2023/07/04 03:32:22;;;;;;;4.47;1.08;;;;;;;;;;4994191;28;20436;-89
2023/07/04 03:34:48;;;;;;;6.27;1.10;;;;;;;;;;4995754;28;20691;-87
2023/07/04 03:37:14;;;;;;;4.43;1.77;;;;;;;;;;4994695;28;20924;-88
2023/07/04 03:39:41;;;;;;;5.17;1.27;;;;;;;;;;4995959;28;20403;-88
2023/07/04 03:42:07;;;;;;;4.30;1.77;;;;;;;;;;4993656;28;20933;-89
2023/07/04 03:44:33;;;;;;;7.40;1.77;;;;;;;;;;4995424;28;20234;-84
2023/07/04 03:46:59;;;;;;;5.93;1.87;;;;;;;;;;4995485;28;20445;-83
2023/07/04 03:49:24;;;;;;;4.03;1.77;;;;;;;;;;4995788;28;20408;-85
2023/07/04 03:51:50;;;;;;;5.33;2.30;;;;;;;;;;4995554;28;20410;-88
2023/07/04 03:54:17;;;;;;;6.03;2.70;;;;;;;;;;4995751;28;20407;-84
2023/07/04 03:56:43;;;;;;;5.43;2.27;;;;;;;;;;4995307;28;20442;-84
2023/07/04 03:59:09;;;;;;;4.60;2.00;;;;;;;;;;4993902;28;20447;-87
2023/07/04 04:01:35;;;;;;;3.40;2.30;;;;;;;;;;4995026;28;20482;-87
2023/07/04 04:04:00;;;;;;;7.23;2.13;;;;;;;;;;4995177;28;20264;-87
2023/07/04 04:06:26;;;;;;;5.13;2.63;;;;;;;;;;4994998;28;20459;-84
2023/07/04 04:08:52;;;;;;;4.37;1.90;;;;;;;;;;4994371;28;20410;-86
2023/07/04 04:11:18;;;;;;;7.80;1.93;;;;;;;;;;4993294;28;20411;-84
2023/07/04 04:13:44;;;;;;;5.63;1.33;;;;;;;;;;4994841;28;20639;-88
2023/07/04 04:16:10;;;;;;;3.10;1.50;;;;;;;;;;4994671;28;20417;-86
2023/07/04 04:18:36;;;;;;;7.20;2.13;;;;;;;;;;4995028;28;20815;-84
2023/07/04 04:21:02;;;;;;;5.47;1.40;;;;;;;;;;4995042;28;20222;-89
2023/07/04 04:23:28;;;;;;;11.37;3.30;;;;;;;;;;4995181;28;20467;-90
2023/07/04 04:25:54;;;;;;;3.93;1.90;;;;;;;;;;4993315;28;20501;-86
2023/07/04 04:28:20;;;;;;;5.77;2.30;;;;;;;;;;4993349;28;20929;-87
2023/07/04 04:30:47;;;;;;;2.87;1.30;;;;;;;;;;4993222;28;20235;-86
2023/07/04 04:33:16;;;;;;;9.10;2.33;;;;;;;;;;4993273;28;20828;-85
2023/07/04 04:35:42;;;;;;;6.27;2.10;;;;;;;;;;4994456;28;20423;-82
2023/07/04 04:38:10;;;;;;;6.43;3.07;;;;;;;;;;4994403;28;20506;-84
2023/07/04 04:40:36;;;;;;;4.03;1.73;;;;;;;;;;4992776;28;20515;-87
2023/07/04 04:43:02;;;;;;;5.53;2.67;;;;;;;;;;4994502;28;20933;-88
2023/07/04 04:45:28;;;;;;;6.13;2.43;;;;;;;;;;4993344;28;20225;-88
2023/07/04 04:47:54;;;;;;;5.40;1.83;;;;;;;;;;4994427;28;20419;-86
2023/07/04 04:50:24;;;;;;;6.83;1.87;;;;;;;;;;4994233;28;20418;-87
2023/07/04 04:52:50;;;;;;;3.90;2.50;;;;;;;;;;4994035;28;20454;-86
2023/07/04 04:55:16;;;;;;;5.97;2.17;;;;;;;;;;4993834;28;20444;-88
2023/07/04 04:57:42;;;;;;;4.13;2.17;;;;;;;;;;4992749;28;20415;-87
2023/07/04 05:00:10;;;;;;;5.20;2.00;;;;;;;;;;4993993;28;20435;-86
2023/07/04 05:02:36;;;;;;;7.03;2.40;;;;;;;;;;4993923;28;20478;-88
2023/07/04 05:05:02;;;;;;;6.07;2.20;;;;;;;;;;4994030;28;20409;-83
2023/07/04 05:07:28;;;;;;;8.43;1.87;;;;;;;;;;4994019;28;20481;-87
2023/07/04 05:09:55;;;;;;;5.23;2.57;;;;;;;;;;4993408;28;20469;-88
2023/07/04 05:12:21;;;;;;;7.90;2.07;;;;;;;;;;4993864;28;20782;-86
2023/07/04 05:14:47;;;;;;;4.23;1.60;;;;;;;;;;4993782;28;20917;-84
2023/07/04 05:17:13;;;;;;;7.73;1.87;;;;;;;;;;4993874;28;20425;-82
2023/07/04 05:19:38;;;;;;;5.40;2.20;;;;;;;;;;4991897;28;20472;-85
2023/07/04 05:22:05;;;;;;;6.70;2.43;;;;;;;;;;4993610;28;20529;-85
2023/07/04 05:24:31;;;;;;;3.00;2.17;;;;;;;;;;4993626;28;21096;-83
2023/07/04 05:26:57;;;;;;;4.00;1.80;;;;;;;;;;4993386;28;20415;-85
2023/07/04 05:29:23;;;;;;;8.67;2.30;;;;;;;;;;4993636;28;20408;-84
2023/07/04 05:31:49;;;;;;;6.77;2.67;;;;;;;;;;4992450;28;20415;-86
2023/07/04 05:34:18;;;;;;;9.60;3.30;;;;;;;;;;4993581;28;20566;-85
2023/07/04 05:36:44;;;;;;;5.57;2.57;;;;;;;;;;4993529;28;20419;-86
2023/07/04 05:39:10;;;;;;;6.63;2.00;;;;;;;;;;4992357;28;20424;-85
2023/07/04 05:41:37;;;;;;;7.27;2.50;;;;;;;;;;4991898;28;20539;-84
2023/07/04 05:44:04;;;;;;;4.30;1.73;;;;;;;;;;4993568;28;20428;-87
2023/07/04 05:46:30;;;;;;;9.33;1.93;;;;;;;;;;4993369;28;20412;-87
2023/07/04 05:48:57;;;;;;;2.73;1.60;;;;;;;;;;4992848;28;20886;-85
2023/07/04 05:51:23;;;;;;;2.30;0.93;;;;;;;;;;4993448;28;20427;-87
2023/07/04 05:53:50;;;;;;;6.20;1.60;;;;;;;;;;5008828;28;20432;-86
2023/07/04 05:56:21;;;;;;;3.20;1.67;;;;;;;;;;4992468;28;20425;-89
2023/07/04 05:58:48;;;;;;;6.23;1.57;;;;;;;;;;5007476;28;20436;-89
2023/07/04 06:01:22;;;;;;;10.63;1.57;;;;;;;;;;5007053;28;20910;-90
2023/07/04 06:03:48;;;;;;;3.03;1.60;;;;;;;;;;4992387;28;20924;-90
2023/07/04 06:06:16;;;;;;;3.23;1.43;;;;;;;;;;4991744;28;20417;-81
2023/07/04 06:08:42;;;;;;;3.00;1.20;;;;;;;;;;4991444;28;20424;-79
2023/07/04 06:11:08;;;;;;;2.53;1.10;;;;;;;;;;4991336;28;20471;-81
2023/07/04 06:13:34;;;;;;;3.60;0.80;;;;;;;;;;5008300;28;20517;-80
2023/07/04 06:16:02;;;;;;;6.77;1.03;;;;;;;;;;4993289;28;20238;-79
2023/07/04 06:18:31;;;;;;;4.53;1.13;;;;;;;;;;4992971;28;20198;-82
2023/07/04 06:21:07;;;;;;;9.20;1.57;;;;;;;;;;4993201;28;20560;-82
2023/07/04 06:23:33;;;;;;;3.33;0.60;;;;;;;;;;4991821;28;20480;-80
2023/07/04 06:25:59;;;;;;;4.23;1.00;;;;;;;;;;4991532;28;20769;-81
2023/07/04 06:28:25;;;;;;;1.90;0.53;;;;;;;;;;4991900;28;20424;-83
2023/07/04 06:30:51;;;;;;;4.67;0.90;;;;;;;;;;4994299;28;20452;-81
2023/07/04 06:33:17;;;;;;;3.10;0.97;;;;;;;;;;4996589;28;20409;-79
2023/07/04 06:35:43;;;;;;;2.30;1.00;;;;;;;;;;4996495;28;20479;-82
2023/07/04 06:38:10;;;;;;;2.90;0.77;;;;;;;;;;4996577;28;20814;-81
2023/07/04 06:40:36;;;;;;;5.20;1.00;;;;;;;;;;4994933;28;20422;-85
2023/07/04 06:43:03;;;;;;;3.17;0.63;;;;;;;;;;4996301;28;21069;-84
2023/07/04 06:45:29;;;;;;;4.47;1.20;;;;;;;;;;4996423;28;20405;-83
2023/07/04 06:47:55;;;;;;;2.80;1.20;;;;;;;;;;4996358;28;20410;-83
2023/07/04 06:50:21;;;;;;;4.20;1.17;;;;;;;;;;4996336;28;20930;-85
2023/07/04 06:52:47;;;;;;;5.90;1.33;;;;;;;;;;4995073;28;20185;-84
2023/07/04 06:55:13;;;;;;;2.70;0.40;;;;;;;;;;4995945;28;20175;-83
2023/07/04 06:57:39;;;;;;;4.07;1.20;;;;;;;;;;4995057;28;20210;-83
2023/07/04 07:00:05;;;;;;;3.67;0.77;;;;;;;;;;4996202;28;20489;-82
2023/07/04 07:02:32;;;;;;;1.50;0.50;;;;;;;;;;4996052;28;20468;-83
2023/07/04 07:04:58;;;;;;;2.70;0.83;;;;;;;;;;4996071;28;20422;-83
2023/07/04 07:07:24;;;;;;;4.57;0.93;;;;;;;;;;4996078;28;20420;-82
2023/07/04 07:09:49;;;;;;;4.43;1.17;;;;;;;;;;4995523;28;20815;-83
2023/07/04 07:12:15;;;;;;;4.23;1.10;;;;;;;;;;4995959;28;20417;-83
2023/07/04 07:14:41;;;;;;;3.40;0.57;;;;;;;;;;4994652;28;20485;-85
2023/07/04 07:17:08;;;;;;;4.40;0.70;;;;;;;;;;4995908;28;20254;-83
2023/07/04 07:19:34;;;;;;;2.53;0.57;;;;;;;;;;4995814;28;20502;-88
2023/07/04 07:22:09;;;;;;;3.83;0.90;;;;;;;;;;4995601;28;20553;-84
2023/07/04 07:24:35;;;;;;;7.50;1.37;;;;;;;;;;4995197;28;20411;-83
2023/07/04 07:27:03;;;;;;;2.90;1.00;;;;;;;;;;4995595;28;20917;-84
2023/07/04 07:29:29;;;;;;;3.20;0.90;;;;;;;;;;4995676;28;20449;-84
2023/07/04 07:31:55;;;;;;;4.63;0.87;;;;;;;;;;4995639;28;20457;-84
2023/07/04 07:34:21;;;;;;;2.53;0.53;;;;;;;;;;4994267;28;20423;-84
2023/07/04 07:36:47;;;;;;;3.10;0.40;;;;;;;;;;4995569;28;20242;-85
2023/07/04 07:39:17;;;;;;;6.77;0.60;;;;;;;;;;4995458;28;20183;-83
2023/07/04 07:41:44;;;;;;;2.17;0.40;;;;;;;;;;4994672;28;20454;-83
2023/07/04 07:44:11;;;;;;;3.10;0.67;;;;;;;;;;4995160;28;20418;-85
2023/07/04 07:46:37;;;;;;;3.77;0.70;;;;;;;;;;4995283;28;20465;-85
2023/07/04 07:49:03;;;;;;;5.17;0.60;;;;;;;;;;4995165;28;20472;-81
2023/07/04 07:51:30;;;;;;;3.40;0.43;;;;;;;;;;4994038;28;20411;-81
2023/07/04 07:53:56;;;;;;;3.70;1.00;;;;;;;;;;4995215;28;20422;-83
2023/07/04 07:56:25;;;;;;;4.13;0.70;;;;;;;;;;4993576;28;20416;-82
2023/07/04 07:58:51;;;;;;;2.73;0.80;;;;;;;;;;4995119;28;20473;-84
2023/07/04 08:01:22;;;;;;;3.00;0.47;;;;;;;;;;4995044;28;20441;-82
2023/07/04 08:03:48;;;;;;;3.33;0.70;;;;;;;;;;4993841;28;20956;-84
2023/07/04 08:06:23;;;;;;;2.03;0.30;;;;;;;;;;4993727;28;20419;-85
2023/07/04 08:08:50;;;;;;;3.20;0.43;;;;;;;;;;4994636;28;20512;-84
2023/07/04 08:11:16;;;;;;;2.90;0.40;;;;;;;;;;4994628;28;20415;-86
2023/07/04 08:13:42;;;;;;;2.90;0.30;;;;;;;;;;4994829;28;20418;-84
2023/07/04 08:16:08;;;;;;;5.23;1.07;;;;;;;;;;4993502;28;20943;-84
2023/07/04 08:18:34;;;;;;;1.40;0.20;;;;;;;;;;4994679;28;20509;-85
2023/07/04 08:21:01;;;;;;;3.43;0.50;;;;;;;;;;4994665;28;20441;-84
2023/07/04 08:23:28;;;;;;;3.20;0.43;;;;;;;;;;4993351;28;20485;-85
2023/07/04 08:25:54;;;;;;;1.70;0.27;;;;;;;;;;4994252;28;20421;-82
2023/07/04 08:28:21;;;;;;;2.10;0.57;;;;;;;;;;4994533;28;20429;-83
2023/07/04 08:30:47;;;;;;;2.57;0.53;;;;;;;;;;4994539;28;20445;-84
2023/07/04 08:33:17;;;;;;;2.03;0.60;;;;;;;;;;4994519;28;20464;-81
2023/07/04 08:36:03;;;;;;;3.40;0.40;;;;;;;;;;4994492;28;20417;-83
2023/07/04 08:38:29;;;;;;;1.60;0.67;;;;;;;;;;4994193;28;20418;-84
2023/07/04 08:40:55;;;;;;;2.07;0.50;;;;;;;;;;4993959;28;20449;-85
2023/07/04 08:43:27;;;;;;;2.53;0.37;;;;;;;;;;4992899;28;20529;-81
2023/07/04 08:45:54;;;;;;;2.37;0.50;;;;;;;;;;4994275;28;20883;-82
2023/07/04 08:48:21;;;;;;;3.43;0.80;;;;;;;;;;4994184;28;20436;-84
2023/07/04 08:50:48;;;;;;;4.77;0.60;;;;;;;;;;4994061;28;20806;-84
2023/07/04 08:53:14;;;;;;;2.00;0.30;;;;;;;;;;4993863;28;20854;-84
2023/07/04 08:55:43;;;;;;;0.97;0.30;;;;;;;;;;4992948;28;20417;-86
2023/07/04 08:58:14;;;;;;;2.83;1.07;;;;;;;;;;4994033;28;20183;-86
2023/07/04 09:00:44;;;;;;;2.00;0.33;;;;;;;;;;4992692;28;20417;-85
2023/07/04 09:03:17;;;;;;;1.87;0.70;;;;;;;;;;4993648;28;20477;-84
2023/07/04 09:05:48;;;;;;;1.90;0.30;;;;;;;;;;4994025;28;20468;-85
2023/07/04 09:08:32;;;;;;;3.27;0.63;;;;;;;;;;4993882;28;20449;-86
2023/07/04 09:11:06;;;;;;;3.53;0.40;;;;;;;;;;4993304;28;20465;-84
2023/07/04 09:13:43;;;;;;;1.87;0.30;;;;;;;;;;4992438;28;20808;-85
2023/07/04 09:16:14;;;;;;;1.60;0.40;;;;;;;;;;4993692;28;20422;-84
2023/07/04 09:18:45;;;;;;;2.80;0.50;;;;;;;;;;4993625;28;20826;-84
2023/07/04 09:21:15;;;;;;;1.10;0.37;;;;;;;;;;4993090;28;20447;-82
2023/07/04 09:23:42;;;;;;;1.00;0.77;;;;;;;;;;4990777;28;20463;-84
2023/07/04 09:26:10;;;;;;;1.90;0.20;;;;;;;;;;5007710;28;20497;-84
2023/07/04 09:28:37;;;;;;;5.30;0.50;;;;;;;;;;4991766;28;20458;-83
2023/07/04 09:31:03;;;;;;;1.03;0.37;;;;;;;;;;4993135;28;20456;-85
2023/07/04 09:33:29;;;;;;;3.00;0.60;;;;;;;;;;4992996;28;20522;-85
2023/07/04 09:35:56;;;;;;;1.17;0.60;;;;;;;;;;4992919;28;20184;-83
2023/07/04 09:38:26;;;;;;;1.57;0.30;;;;;;;;;;5007979;28;20403;-82
2023/07/04 09:40:54;;;;;;;1.97;0.40;;;;;;;;;;4992684;28;20414;-85
2023/07/04 09:43:30;;;;;;;1.27;0.50;;;;;;;;;;5007950;28;20560;-85
2023/07/04 09:46:18;;;;;;;1.57;0.20;;;;;;;;;;4992888;28;20471;-84
2023/07/04 09:48:44;;;;;;;3.03;0.40;;;;;;;;;;4988104;28;20846;-84
2023/07/04 09:51:29;;;;;;;1.13;0.30;;;;;;;;;;4991513;28;20492;-83
2023/07/04 09:54:28;;;;;;;1.10;0.20;;;;;;;;;;4992236;28;20176;-84
2023/07/04 09:56:54;;;;;;;2.43;0.20;;;;;;;;;;4980094;28;20500;-85
2023/07/04 09:59:26;;;;;;;1.57;0.30;;;;;;;;;;4989995;28;20470;-84
2023/07/04 10:02:00;;;;;;;2.93;0.37;;;;;;;;;;4992946;28;20960;-84
2023/07/04 10:04:35;;;;;;;3.60;0.30;;;;;;;;;;4993289;28;20409;-86
2023/07/04 10:07:04;;;;;;;2.77;0.80;;;;;;;;;;4996480;28;20460;-85
2023/07/04 10:09:30;;;;;;;3.57;0.70;;;;;;;;;;4996397;28;20458;-85
2023/07/04 10:12:28;;;;;;;1.30;0.40;;;;;;;;;;4995615;28;20927;-85
2023/07/04 10:14:56;;;;;;;2.30;0.50;;;;;;;;;;4984868;28;20419;-84
2023/07/04 10:17:28;;;;;;;2.60;0.60;;;;;;;;;;4996808;28;20414;-84
2023/07/04 10:19:59;;;;;;;2.80;0.40;;;;;;;;;;4996878;28;20460;-85
2023/07/04 10:22:26;;;;;;;2.57;0.20;;;;;;;;;;4996645;28;20455;-82
2023/07/04 10:24:52;;;;;;;0.70;0.30;;;;;;;;;;4995667;28;20782;-84
2023/07/04 10:27:19;;;;;;;2.17;0.30;;;;;;;;;;5011146;28;20440;-85
2023/07/04 10:29:55;;;;;;;1.80;0.30;;;;;;;;;;4996492;28;20426;-84
2023/07/04 10:32:21;;;;;;;2.27;0.60;;;;;;;;;;4995337;28;20508;-84
2023/07/04 10:34:49;;;;;;;1.80;0.30;;;;;;;;;;4996594;28;20406;-84
2023/07/04 10:37:20;;;;;;;1.90;0.40;;;;;;;;;;4995199;28;20427;-86
2023/07/04 10:39:46;;;;;;;2.20;0.60;;;;;;;;;;4996071;28;20494;-87
2023/07/04 10:42:15;;;;;;;1.27;0.40;;;;;;;;;;4996337;28;20506;-83
2023/07/04 10:44:43;;;;;;;1.30;0.37;;;;;;;;;;4996442;28;20957;-83
2023/07/04 10:47:18;;;;;;;1.97;0.40;;;;;;;;;;4996369;28;20418;-85
2023/07/04 10:49:47;;;;;;;1.40;0.27;;;;;;;;;;4996326;28;20409;-86
2023/07/04 10:52:19;;;;;;;1.97;0.50;;;;;;;;;;4996425;28;20422;-82
2023/07/04 10:54:45;;;;;;;1.70;0.20;;;;;;;;;;4995935;28;20476;-88
2023/07/04 10:57:14;;;;;;;1.20;0.20;;;;;;;;;;4994947;28;20875;-84
2023/07/04 10:59:44;;;;;;;1.80;0.40;;;;;;;;;;4996114;28;20425;-85
2023/07/04 11:02:17;;;;;;;2.27;0.20;;;;;;;;;;4996102;28;20461;-83
2023/07/04 11:04:44;;;;;;;1.93;0.20;;;;;;;;;;4996107;28;20839;-85
2023/07/04 11:07:28;;;;;;;4.70;0.40;;;;;;;;;;4995899;28;20452;-83
2023/07/04 11:09:57;;;;;;;1.17;0.33;;;;;;;;;;4995453;28;20474;-85
2023/07/04 11:12:27;;;;;;;2.33;0.30;;;;;;;;;;4995899;28;20416;-87
2023/07/04 11:14:58;;;;;;;1.53;0.30;;;;;;;;;;4995901;28;20517;-82
2023/07/04 11:17:24;;;;;;;1.17;0.20;;;;;;;;;;4994885;28;20418;-88
2023/07/04 11:19:54;;;;;;;3.60;0.30;;;;;;;;;;4995806;28;20425;-83
2023/07/04 11:22:20;;;;;;;1.03;0.33;;;;;;;;;;4994350;28;20560;-83
2023/07/04 11:24:51;;;;;;;2.47;0.30;;;;;;;;;;4995363;28;20411;-86
2023/07/04 11:27:18;;;;;;;1.13;0.20;;;;;;;;;;4994441;28;20430;-84
2023/07/04 11:29:46;;;;;;;4.83;0.67;;;;;;;;;;4995651;28;20926;-87
2023/07/04 11:32:16;;;;;;;3.67;0.47;;;;;;;;;;4995552;28;20425;-86
2023/07/04 11:34:50;;;;;;;2.63;0.33;;;;;;;;;;4995540;28;20473;-84
2023/07/04 11:37:17;;;;;;;1.30;0.30;;;;;;;;;;4994277;28;20430;-86
2023/07/04 11:39:47;;;;;;;1.97;0.20;;;;;;;;;;4995141;28;20406;-87
2023/07/04 11:42:16;;;;;;;1.97;0.30;;;;;;;;;;4995306;28;20473;-86
2023/07/04 11:45:17;;;;;;;1.60;0.60;;;;;;;;;;4994097;28;20459;-85
2023/07/04 11:48:10;;;;;;;3.10;0.20;;;;;;;;;;4949235;28;20449;-85
2023/07/04 11:50:39;;;;;;;1.27;0.30;;;;;;;;;;4979966;28;20464;-85
2023/07/04 11:53:14;;;;;;;3.37;0.40;;;;;;;;;;4976774;28;20471;-84
2023/07/04 11:55:40;;;;;;;1.67;0.60;;;;;;;;;;4989827;28;20418;-84
2023/07/04 11:58:12;;;;;;;2.73;0.50;;;;;;;;;;4976631;28;20959;-84
2023/07/04 12:00:38;;;;;;;2.37;0.33;;;;;;;;;;4995831;28;20842;-86
2023/07/04 12:03:16;;;;;;;1.90;0.33;;;;;;;;;;5009600;28;20520;-84
2023/07/04 12:05:43;;;;;;;2.20;0.50;;;;;;;;;;5009563;28;20504;-85
2023/07/04 12:08:14;;;;;;;2.43;0.30;;;;;;;;;;5009574;28;20784;-86
2023/07/04 12:10:41;;;;;;;2.70;0.30;;;;;;;;;;5005798;28;20467;-84
2023/07/04 12:13:08;;;;;;;2.83;0.33;;;;;;;;;;5014124;28;20429;-86
2023/07/04 12:15:35;;;;;;;1.60;0.30;;;;;;;;;;5014178;28;20733;-85
2023/07/04 12:18:01;;;;;;;2.30;0.50;;;;;;;;;;5014212;28;20450;-87
2023/07/04 12:20:29;;;;;;;0.43;0.20;;;;;;;;;;5013967;28;20469;-85
2023/07/04 12:22:56;;;;;;;2.30;0.40;;;;;;;;;;5012610;28;20933;-84
2023/07/04 12:25:24;;;;;;;0.97;0.37;;;;;;;;;;5013424;28;20402;-83
2023/07/04 12:27:49;;;;;;;0.80;0.20;;;;;;;;;;5013353;28;20410;-85
2023/07/04 12:30:16;;;;;;;1.50;0.57;;;;;;;;;;5013325;28;20477;-84
2023/07/04 12:32:41;;;;;;;0.87;0.20;;;;;;;;;;5013392;28;20406;-86
2023/07/04 12:35:12;;;;;;;1.00;0.20;;;;;;;;;;5008367;28;20441;-84
2023/07/04 12:37:40;;;;;;;3.27;0.20;;;;;;;;;;4994079;28;20415;-88
2023/07/04 12:40:12;;;;;;;1.80;0.70;;;;;;;;;;4993938;28;20415;-83
2023/07/04 12:42:39;;;;;;;2.37;0.20;;;;;;;;;;4993997;28;20462;-85
2023/07/04 12:45:15;;;;;;;1.60;0.20;;;;;;;;;;4993836;28;20786;-84
2023/07/04 12:47:42;;;;;;;0.70;0.20;;;;;;;;;;4994079;28;20399;-84
2023/07/04 12:50:09;;;;;;;0.90;0.40;;;;;;;;;;5009589;28;20860;-86
2023/07/04 12:52:36;;;;;;;2.40;0.63;;;;;;;;;;5001278;28;20759;-85
2023/07/04 12:55:03;;;;;;;3.70;0.60;;;;;;;;;;4993501;28;20422;-83
2023/07/04 12:57:30;;;;;;;1.73;0.27;;;;;;;;;;5008893;28;20465;-84
2023/07/04 13:00:13;;;;;;;1.00;0.20;;;;;;;;;;4993746;28;20429;-85
2023/07/04 13:02:39;;;;;;;1.03;0.40;;;;;;;;;;5008889;28;20580;-85
2023/07/04 13:05:06;;;;;;;1.50;0.20;;;;;;;;;;4993629;28;20469;-84
2023/07/04 13:07:32;;;;;;;1.87;0.60;;;;;;;;;;4993721;28;20770;-85
2023/07/04 13:10:00;;;;;;;1.93;0.30;;;;;;;;;;4993051;28;20454;-86
2023/07/04 13:12:27;;;;;;;1.47;0.20;;;;;;;;;;4993539;28;20425;-86
2023/07/04 13:15:06;;;;;;;1.37;0.20;;;;;;;;;;4993372;28;20408;-84
2023/07/04 13:17:31;;;;;;;0.30;0.27;;;;;;;;;;4993512;28;20442;-86
2023/07/04 13:19:57;;;;;;;1.17;0.20;;;;;;;;;;4993343;28;20423;-84
2023/07/04 13:22:25;;;;;;;2.10;0.27;;;;;;;;;;5008035;28;20467;-85
2023/07/04 13:24:52;;;;;;;0.80;0.37;;;;;;;;;;4992966;28;20907;-84
2023/07/04 13:27:23;;;;;;;0.70;0.20;;;;;;;;;;4993274;28;20471;-85
2023/07/04 13:30:08;;;;;;;1.53;0.20;;;;;;;;;;4993572;28;20414;-84
2023/07/04 13:32:35;;;;;;;0.83;0.30;;;;;;;;;;5009507;28;20435;-85
2023/07/04 13:35:40;;;;;;;1.97;0.23;;;;;;;;;;5012660;28;20513;-83
2023/07/04 13:38:06;;;;;;;1.20;0.30;;;;;;;;;;4952252;29;20424;-84
2023/07/04 13:40:35;;;;;;;1.27;0.50;;;;;;;;;;4954242;28;20452;-86
2023/07/04 13:43:02;;;;;;;4.53;0.30;;;;;;;;;;4988415;28;20481;-83
2023/07/04 13:45:28;;;;;;;0.83;0.20;;;;;;;;;;5019209;28;20433;-85
2023/07/04 13:47:54;;;;;;;1.23;0.40;;;;;;;;;;5019245;28;20888;-84
2023/07/04 13:50:20;;;;;;;1.93;0.20;;;;;;;;;;5019052;28;20509;-85
2023/07/04 13:52:46;;;;;;;1.13;0.20;;;;;;;;;;5017778;28;20196;-84
2023/07/04 13:55:12;;;;;;;0.60;0.30;;;;;;;;;;5018746;28;20182;-88
2023/07/04 13:57:38;;;;;;;0.50;0.30;;;;;;;;;;5018991;28;20470;-84
2023/07/04 14:00:05;;;;;;;0.80;0.30;;;;;;;;;;5019201;28;20770;-86
2023/07/04 14:02:31;;;;;;;1.47;0.30;;;;;;;;;;5018938;28;20547;-83
2023/07/04 14:04:57;;;;;;;0.60;0.20;;;;;;;;;;5018897;28;20420;-86
2023/07/04 14:07:22;;;;;;;0.80;0.20;;;;;;;;;;5018830;28;20417;-85
2023/07/04 14:09:48;;;;;;;1.77;0.20;;;;;;;;;;5018564;28;20467;-84
2023/07/04 14:12:14;;;;;;;1.97;0.30;;;;;;;;;;5019103;28;20705;-86
2023/07/04 14:14:42;;;;;;;3.23;0.30;;;;;;;;;;5018986;28;20178;-82
2023/07/04 14:17:08;;;;;;;0.80;0.23;;;;;;;;;;5018889;28;20179;-85
2023/07/04 14:19:34;;;;;;;0.70;0.20;;;;;;;;;;5008138;28;20492;-84
2023/07/04 14:22:00;;;;;;;1.53;0.30;;;;;;;;;;4999322;28;20480;-85
2023/07/04 14:24:26;;;;;;;2.00;0.30;;;;;;;;;;4999128;28;20404;-83
2023/07/04 14:26:53;;;;;;;2.03;0.50;;;;;;;;;;4998973;28;20189;-83
2023/07/04 14:29:19;;;;;;;1.07;0.43;;;;;;;;;;4999652;28;20415;-84
2023/07/04 14:31:45;;;;;;;1.10;0.30;;;;;;;;;;4999541;28;20510;-82
2023/07/04 14:34:10;;;;;;;0.90;0.37;;;;;;;;;;4998983;28;20837;-84
2023/07/04 14:36:36;;;;;;;1.40;0.23;;;;;;;;;;4999153;28;20207;-85
2023/07/04 14:39:03;;;;;;;0.83;0.20;;;;;;;;;;4998531;28;20437;-87
2023/07/04 14:41:30;;;;;;;0.97;0.20;;;;;;;;;;4999405;28;20519;-88
2023/07/04 14:43:56;;;;;;;0.63;0.30;;;;;;;;;;4999582;28;20537;-84
2023/07/04 14:46:22;;;;;;;2.50;0.20;;;;;;;;;;5000979;28;20472;-88
2023/07/04 14:48:47;;;;;;;1.20;0.30;;;;;;;;;;5009590;28;20847;-86